Time;durP1;ratioP1;P1;durP2;ratioP2;P2;SDS_P1;SDS_P2;PMS_P1;PMS_P2;Temp;Humidity;BMP_temperature;BMP_pressure;BME280_temperature;BME280_humidity;BME280_pressure;Samples;Min_cycle;Max_cycle;Signal;HPM_P1;HPM_P2
2021/08/22 00:00:31;;;;;;;51.00;35.70;;;17.90;99.80;;;;;;4951600;28;20187;-74
2021/08/22 00:02:58;;;;;;;54.17;37.07;;;17.90;99.80;;;;;;4954079;29;20182;-73
2021/08/22 00:05:26;;;;;;;56.07;36.20;;;17.90;99.50;;;;;;4952491;28;20227;-80
2021/08/22 00:07:53;;;;;;;58.60;36.53;;;18.30;99.50;;;;;;4952502;28;20560;-75
2021/08/22 00:10:21;;;;;;;54.60;35.87;;;18.30;98.80;;;;;;4958063;28;20186;-76
2021/08/22 00:12:49;;;;;;;53.83;34.70;;;18.60;98.70;;;;;;4949178;28;20238;-71
2021/08/22 00:15:16;;;;;;;53.13;35.87;;;18.80;98.20;;;;;;4951678;28;20689;-77
2021/08/22 00:17:43;;;;;;;56.87;36.70;;;18.90;97.80;;;;;;4945546;28;20187;-75
2021/08/22 00:20:11;;;;;;;60.23;38.20;;;19.00;97.70;;;;;;4946042;28;20318;-77
2021/08/22 00:22:39;;;;;;;55.50;37.03;;;19.10;97.30;;;;;;4942879;28;20227;-71
2021/08/22 00:25:08;;;;;;;53.40;34.47;;;19.10;97.60;;;;;;4947603;28;20191;-68
2021/08/22 00:27:35;;;;;;;53.50;36.37;;;19.30;97.70;;;;;;4930459;29;20195;-71
2021/08/22 00:30:04;;;;;;;53.07;36.43;;;19.60;97.10;;;;;;4958186;28;20287;-66
2021/08/22 00:32:31;;;;;;;56.50;37.30;;;19.70;96.80;;;;;;4957481;28;20709;-72
2021/08/22 00:34:59;;;;;;;58.13;35.50;;;19.80;96.50;;;;;;4957697;29;20202;-76
2021/08/22 00:37:26;;;;;;;56.90;35.23;;;20.00;96.20;;;;;;4957572;29;20187;-75
2021/08/22 00:39:54;;;;;;;50.17;35.57;;;20.20;95.90;;;;;;4949818;28;20231;-75
2021/08/22 00:42:30;;;;;;;53.27;35.00;;;20.30;95.70;;;;;;4947083;28;20223;-68
2021/08/22 00:44:59;;;;;;;52.07;34.67;;;20.50;95.60;;;;;;4951673;28;20187;-74
2021/08/22 00:47:26;;;;;;;50.37;33.13;;;20.50;95.20;;;;;;4941985;29;20188;-68
2021/08/22 00:49:54;;;;;;;56.03;34.87;;;20.50;95.30;;;;;;4941746;28;20238;-74
2021/08/22 00:52:21;;;;;;;52.43;34.57;;;20.70;95.10;;;;;;4944805;28;20183;-80
2021/08/22 00:54:49;;;;;;;53.77;34.30;;;20.80;94.60;;;;;;4944915;28;20204;-70
2021/08/22 00:57:16;;;;;;;50.30;34.23;;;21.00;94.50;;;;;;4956480;28;20179;-73
2021/08/22 00:59:44;;;;;;;50.77;34.00;;;21.10;94.60;;;;;;4945578;28;20598;-77
2021/08/22 01:02:19;;;;;;;48.70;34.17;;;21.30;94.30;;;;;;4953705;28;20684;-69
2021/08/22 01:05:06;;;;;;;60.27;36.57;;;21.40;94.10;;;;;;4957043;28;20182;-74
2021/08/22 01:07:53;;;;;;;51.37;34.23;;;21.70;94.00;;;;;;4954889;28;20202;-75
2021/08/22 01:10:25;;;;;;;47.50;31.33;;;21.90;93.20;;;;;;4956333;28;20696;-69
2021/08/22 01:13:10;;;;;;;44.93;29.40;;;22.10;92.60;;;;;;4950919;28;20605;-70
2021/08/22 01:15:44;;;;;;;41.27;30.07;;;22.20;92.60;;;;;;4950391;28;20719;-73
2021/08/22 01:18:15;;;;;;;49.53;29.37;;;22.50;91.60;;;;;;4955758;28;20600;-68
2021/08/22 01:21:00;;;;;;;45.63;29.53;;;22.70;91.40;;;;;;4947332;28;20595;-78
2021/08/22 01:23:28;;;;;;;43.53;29.77;;;22.90;91.20;;;;;;4947927;28;20605;-71
2021/08/22 01:25:58;;;;;;;44.60;30.47;;;23.10;90.80;;;;;;4942351;28;20184;-75
2021/08/22 01:28:28;;;;;;;45.57;31.90;;;23.10;90.40;;;;;;4953665;29;20187;-78
2021/08/22 01:31:01;;;;;;;41.83;29.27;;;23.20;90.40;;;;;;4947634;29;20192;-66
2021/08/22 01:33:31;;;;;;;45.60;29.67;;;23.50;90.20;;;;;;4953443;28;20186;-69
2021/08/22 01:36:01;;;;;;;47.13;30.07;;;23.60;89.40;;;;;;4956051;29;20223;-66
2021/08/22 01:38:28;;;;;;;47.33;29.33;;;23.80;89.00;;;;;;4963411;28;20246;-74
2021/08/22 01:40:58;;;;;;;39.67;27.27;;;23.70;88.00;;;;;;4961988;28;20189;-68
2021/08/22 01:43:26;;;;;;;41.50;27.97;;;23.80;88.30;;;;;;4950074;28;20267;-67
2021/08/22 01:45:58;;;;;;;40.30;26.70;;;24.00;88.40;;;;;;4954588;28;20202;-72
2021/08/22 01:48:25;;;;;;;44.17;27.80;;;24.00;87.30;;;;;;4956362;29;20167;-68
2021/08/22 01:50:59;;;;;;;47.13;28.97;;;24.30;86.90;;;;;;4954626;28;20266;-66
2021/08/22 01:53:33;;;;;;;38.23;23.60;;;24.20;86.10;;;;;;4956013;28;20184;-70
2021/08/22 01:56:01;;;;;;;35.47;23.87;;;24.50;85.60;;;;;;4943425;28;20218;-75
2021/08/22 01:58:31;;;;;;;44.63;22.90;;;24.80;84.80;;;;;;4940436;28;20749;-67
2021/08/22 02:00:59;;;;;;;37.33;22.17;;;25.00;84.00;;;;;;4948514;28;20192;-74
2021/08/22 02:03:31;;;;;;;34.83;21.17;;;25.10;83.50;;;;;;4955738;28;20282;-77
2021/08/22 02:06:05;;;;;;;31.03;19.10;;;25.40;82.40;;;;;;4956199;29;20175;-73
2021/08/22 02:08:35;;;;;;;25.43;16.87;;;25.60;81.60;;;;;;4956960;28;20274;-72
2021/08/22 02:11:25;;;;;;;19.43;13.83;;;25.50;80.00;;;;;;4955698;28;20242;-68
2021/08/22 02:13:56;;;;;;;27.23;14.47;;;25.60;79.50;;;;;;4956057;28;20203;-73
2021/08/22 02:16:28;;;;;;;21.50;13.73;;;25.90;79.10;;;;;;4951440;28;20211;-70
2021/08/22 02:18:57;;;;;;;22.77;13.40;;;26.10;78.30;;;;;;4952167;28;20676;-69
2021/08/22 02:21:25;;;;;;;19.43;13.43;;;26.10;77.30;;;;;;4952174;28;20277;-77
2021/08/22 02:23:55;;;;;;;21.47;13.53;;;26.30;77.70;;;;;;4939035;28;20172;-66
2021/08/22 02:26:25;;;;;;;17.87;12.10;;;26.40;76.40;;;;;;4943563;28;20183;-68
2021/08/22 02:28:56;;;;;;;17.33;11.90;;;26.40;74.70;;;;;;4948946;28;20584;-76
2021/08/22 02:31:28;;;;;;;20.23;12.70;;;26.70;71.10;;;;;;4952191;28;20207;-71
2021/08/22 02:33:56;;;;;;;24.87;13.93;;;27.00;70.40;;;;;;4953461;28;20594;-81
2021/08/22 02:36:24;;;;;;;21.77;13.90;;;27.00;68.50;;;;;;4954311;28;20219;-79
2021/08/22 02:38:52;;;;;;;21.57;13.90;;;27.10;68.30;;;;;;4949844;28;20227;-74
2021/08/22 02:41:19;;;;;;;21.73;14.77;;;27.10;66.60;;;;;;4953454;28;20647;-74
2021/08/22 02:43:47;;;;;;;25.40;18.23;;;27.10;66.40;;;;;;4949834;28;20186;-70
2021/08/22 02:46:14;;;;;;;25.77;18.57;;;27.00;65.70;;;;;;4950207;28;20275;-80
2021/08/22 02:48:42;;;;;;;27.83;18.90;;;27.10;64.60;;;;;;4941002;29;20180;-70
2021/08/22 02:51:09;;;;;;;27.97;19.13;;;27.10;64.10;;;;;;4942007;28;20184;-68
2021/08/22 02:53:36;;;;;;;24.87;18.67;;;27.20;63.10;;;;;;4941704;28;20187;-66
2021/08/22 02:56:04;;;;;;;20.60;13.53;;;27.40;65.10;;;;;;4954854;29;20233;-66
2021/08/22 02:58:31;;;;;;;16.47;11.03;;;27.60;67.30;;;;;;4938158;28;20677;-65
2021/08/22 03:00:58;;;;;;;21.70;16.53;;;27.50;68.70;;;;;;4950420;28;20655;-73
2021/08/22 03:03:26;;;;;;;28.83;20.80;;;27.70;67.70;;;;;;4948557;28;20180;-75
2021/08/22 03:05:53;;;;;;;33.90;27.47;;;27.90;66.30;;;;;;4944202;28;20199;-68
2021/08/22 03:08:21;;;;;;;37.70;29.57;;;27.70;64.40;;;;;;4946186;28;20617;-72
2021/08/22 03:10:48;;;;;;;41.23;33.03;;;27.80;61.30;;;;;;4958381;28;20212;-81
2021/08/22 03:13:16;;;;;;;43.70;35.87;;;27.40;61.10;;;;;;4955130;29;20179;-76
2021/08/22 03:15:43;;;;;;;44.37;34.07;;;27.50;61.60;;;;;;4960761;28;20670;-80
2021/08/22 03:18:10;;;;;;;36.70;29.00;;;27.50;61.10;;;;;;4941009;28;20191;-78
2021/08/22 03:20:38;;;;;;;29.03;22.17;;;27.50;60.30;;;;;;4950599;28;20191;-80
2021/08/22 03:23:05;;;;;;;22.10;18.90;;;27.70;65.40;;;;;;4944901;28;20231;-76
2021/08/22 03:25:32;;;;;;;21.17;17.57;;;27.60;69.70;;;;;;4935786;29;20262;-84
2021/08/22 03:28:00;;;;;;;24.00;17.70;;;27.70;71.10;;;;;;4941004;29;20191;-78
2021/08/22 03:30:27;;;;;;;19.80;15.53;;;27.90;72.10;;;;;;4944367;28;20188;-77
2021/08/22 03:32:55;;;;;;;19.70;14.03;;;28.50;72.00;;;;;;4953073;28;20187;-86
2021/08/22 03:35:22;;;;;;;20.80;12.37;;;28.10;73.30;;;;;;4945843;29;20283;-82
2021/08/22 03:37:50;;;;;;;15.50;11.90;;;27.80;74.30;;;;;;4946556;28;20184;-82
2021/08/22 03:40:17;;;;;;;17.00;11.03;;;27.60;74.60;;;;;;4953750;28;20191;-78
2021/08/22 03:42:45;;;;;;;14.23;10.87;;;27.50;75.50;;;;;;4951901;28;20198;-84
2021/08/22 03:45:12;;;;;;;13.37;9.23;;;27.70;74.10;;;;;;4957282;28;20642;-80
2021/08/22 03:47:39;;;;;;;11.17;8.13;;;27.60;75.00;;;;;;4955614;29;20188;-80
2021/08/22 03:50:07;;;;;;;10.70;6.27;;;27.40;75.10;;;;;;4954671;28;20194;-76
2021/08/22 03:52:35;;;;;;;9.13;6.10;;;27.50;74.10;;;;;;4951931;29;20190;-65
2021/08/22 03:55:02;;;;;;;8.17;5.37;;;27.50;74.60;;;;;;4943927;28;20413;-78
2021/08/22 03:57:30;;;;;;;8.50;5.33;;;27.40;74.30;;;;;;4942260;28;20756;-71
2021/08/22 03:59:57;;;;;;;8.43;5.20;;;27.50;73.80;;;;;;4938473;28;20188;-70
2021/08/22 04:02:24;;;;;;;14.03;5.40;;;27.30;74.30;;;;;;4936411;29;20192;-69
2021/08/22 04:04:53;;;;;;;12.40;6.10;;;28.00;73.30;;;;;;4948660;29;20187;-69
2021/08/22 04:07:20;;;;;;;8.23;6.63;;;28.50;71.70;;;;;;4935973;29;20639;-78
2021/08/22 04:09:48;;;;;;;9.57;5.90;;;28.00;71.30;;;;;;4948931;28;20191;-71
2021/08/22 04:12:15;;;;;;;6.43;4.67;;;27.90;71.70;;;;;;4952589;28;20495;-69
2021/08/22 04:14:42;;;;;;;5.47;3.87;;;28.30;71.50;;;;;;4953841;28;20233;-72
2021/08/22 04:17:10;;;;;;;5.97;3.13;;;28.70;71.00;;;;;;4954229;28;20203;-66
2021/08/22 04:19:37;;;;;;;5.73;3.30;;;28.40;70.50;;;;;;4955730;28;20207;-79
2021/08/22 04:22:06;;;;;;;8.17;2.90;;;28.30;70.50;;;;;;4957420;28;20233;-75
2021/08/22 04:24:36;;;;;;;5.67;2.70;;;28.20;70.30;;;;;;4955615;28;20179;-73
2021/08/22 04:27:04;;;;;;;4.43;2.70;;;28.30;70.80;;;;;;4954206;28;20547;-80
2021/08/22 04:29:34;;;;;;;4.10;2.47;;;28.50;70.70;;;;;;4954829;28;20669;-66
2021/08/22 04:32:02;;;;;;;3.37;1.87;;;28.50;70.60;;;;;;4954094;28;20211;-73
2021/08/22 04:34:29;;;;;;;3.40;1.87;;;28.20;70.20;;;;;;4953937;28;20199;-74
2021/08/22 04:36:56;;;;;;;6.03;2.27;;;28.30;70.60;;;;;;4954347;29;20274;-74
2021/08/22 04:39:24;;;;;;;6.40;1.77;;;28.70;70.60;;;;;;4943653;29;20250;-68
2021/08/22 04:41:51;;;;;;;2.13;1.50;;;28.70;70.50;;;;;;4953534;28;20270;-67
2021/08/22 04:44:18;;;;;;;4.13;1.83;;;28.20;70.70;;;;;;4934992;29;20180;-70
2021/08/22 04:46:49;;;;;;;3.30;1.87;;;28.20;70.40;;;;;;4949725;28;20223;-72
2021/08/22 04:49:16;;;;;;;4.20;1.90;;;28.30;70.00;;;;;;4953899;28;20684;-71
2021/08/22 04:51:43;;;;;;;5.57;2.10;;;28.60;69.70;;;;;;4951649;28;20195;-76
2021/08/22 04:54:11;;;;;;;7.30;2.80;;;28.20;69.50;;;;;;4937788;29;20187;-78
2021/08/22 04:56:43;;;;;;;7.27;4.33;;;28.00;69.40;;;;;;4956722;29;20225;-73
2021/08/22 04:59:11;;;;;;;6.97;2.57;;;28.00;69.50;;;;;;4956452;28;20179;-77
2021/08/22 05:01:38;;;;;;;8.73;1.90;;;28.00;68.30;;;;;;4954023;28;20191;-67
2021/08/22 05:04:05;;;;;;;4.20;1.70;;;28.10;68.00;;;;;;4957988;28;20188;-76
2021/08/22 05:06:33;;;;;;;3.53;2.00;;;28.20;67.20;;;;;;4959646;29;20258;-75
2021/08/22 05:09:00;;;;;;;7.47;2.70;;;28.30;67.50;;;;;;4958180;28;20230;-75
2021/08/22 05:11:27;;;;;;;10.07;3.10;;;28.20;67.10;;;;;;4956925;28;20528;-68
2021/08/22 05:13:55;;;;;;;8.20;4.13;;;28.20;67.20;;;;;;4956936;28;20661;-67
2021/08/22 05:16:22;;;;;;;10.97;4.70;;;28.50;67.20;;;;;;4956856;28;20215;-65
2021/08/22 05:18:49;;;;;;;12.07;6.00;;;28.50;67.50;;;;;;4956800;28;20577;-72
2021/08/22 05:21:16;;;;;;;9.93;8.00;;;28.30;67.90;;;;;;4938022;29;20223;-80
2021/08/22 05:23:44;;;;;;;12.50;7.07;;;27.80;68.90;;;;;;4955766;28;20211;-70
2021/08/22 05:26:12;;;;;;;13.80;7.57;;;27.90;68.90;;;;;;4956748;28;20484;-83
2021/08/22 05:28:39;;;;;;;17.33;13.37;;;28.00;68.80;;;;;;4957244;28;20207;-86
2021/08/22 05:31:06;;;;;;;23.03;15.30;;;27.80;69.10;;;;;;4956184;29;20702;-64
2021/08/22 05:33:34;;;;;;;22.47;15.93;;;27.90;68.70;;;;;;4945477;28;20203;-77
2021/08/22 05:36:22;;;;;;;17.40;12.13;;;28.00;67.60;;;;;;4956045;28;20556;-66
2021/08/22 05:38:50;;;;;;;9.50;6.20;;;27.70;67.80;;;;;;4954528;29;20680;-79
2021/08/22 05:41:19;;;;;;;8.27;6.17;;;27.70;67.80;;;;;;4947554;28;20184;-65
2021/08/22 05:43:46;;;;;;;10.47;7.17;;;27.50;68.20;;;;;;4952350;28;20186;-73
2021/08/22 05:46:14;;;;;;;9.43;6.30;;;27.40;67.20;;;;;;4943216;28;20184;-72
2021/08/22 05:48:41;;;;;;;17.30;8.03;;;27.20;67.60;;;;;;4942867;28;20515;-70
2021/08/22 05:51:19;;;;;;;16.57;10.70;;;27.00;66.80;;;;;;4952348;28;20191;-74
2021/08/22 05:53:48;;;;;;;13.60;8.60;;;26.70;67.10;;;;;;4946898;28;20206;-75
2021/08/22 05:56:17;;;;;;;5.40;3.70;;;26.70;67.50;;;;;;4943914;28;20665;-71
2021/08/22 05:58:45;;;;;;;7.27;1.93;;;26.90;67.60;;;;;;4952437;28;20186;-64
2021/08/22 06:01:13;;;;;;;5.13;1.97;;;26.90;67.60;;;;;;4949750;28;20322;-73
2021/08/22 06:03:40;;;;;;;6.80;1.70;;;27.20;67.70;;;;;;4956323;28;20682;-70
2021/08/22 06:06:09;;;;;;;3.73;2.07;;;27.10;67.70;;;;;;4968863;28;20187;-74
2021/08/22 06:08:37;;;;;;;6.03;2.38;;;27.00;68.40;;;;;;4951825;28;20432;-71
2021/08/22 06:11:05;;;;;;;4.10;2.00;;;26.80;68.40;;;;;;4957107;28;20184;-69
2021/08/22 06:13:33;;;;;;;6.80;2.33;;;26.50;69.30;;;;;;4964628;28;20288;-70
2021/08/22 06:16:00;;;;;;;4.93;2.03;;;26.50;69.50;;;;;;4957074;28;20263;-67
2021/08/22 06:18:28;;;;;;;4.63;3.00;;;25.90;70.50;;;;;;4975027;28;20198;-73
2021/08/22 06:20:55;;;;;;;5.77;3.37;;;25.10;71.70;;;;;;4932963;28;20548;-71
2021/08/22 06:23:22;;;;;;;4.80;3.60;;;24.60;73.40;;;;;;4948940;28;20327;-72
2021/08/22 06:25:50;;;;;;;9.77;3.77;;;24.20;74.70;;;;;;4943371;28;20604;-70
2021/08/22 06:28:21;;;;;;;9.97;3.70;;;23.80;75.40;;;;;;4954680;28;20181;-76
2021/08/22 06:30:48;;;;;;;5.93;3.50;;;23.60;76.00;;;;;;4967594;28;20244;-72
2021/08/22 06:33:15;;;;;;;9.83;6.30;;;23.60;76.70;;;;;;4953292;28;20193;-71
2021/08/22 06:35:43;;;;;;;14.77;6.27;;;23.50;76.60;;;;;;4946739;28;20211;-73
2021/08/22 06:38:10;;;;;;;13.30;4.57;;;23.50;76.40;;;;;;4944040;28;20219;-66
2021/08/22 06:40:37;;;;;;;9.63;4.73;;;23.60;76.80;;;;;;4953670;28;20225;-71
2021/08/22 06:43:05;;;;;;;9.53;4.00;;;23.60;76.90;;;;;;4953811;28;20192;-75
2021/08/22 06:45:32;;;;;;;8.87;3.27;;;23.50;77.70;;;;;;4954823;28;20183;-69
2021/08/22 06:47:59;;;;;;;9.93;2.97;;;23.20;78.40;;;;;;4946654;28;20184;-65
2021/08/22 06:50:27;;;;;;;5.70;2.10;;;23.10;79.20;;;;;;4952919;28;20576;-68
2021/08/22 06:52:55;;;;;;;3.50;2.43;;;22.90;80.00;;;;;;4945522;29;20587;-73
2021/08/22 06:55:23;;;;;;;6.03;3.10;;;22.80;80.70;;;;;;4952831;28;20254;-67
2021/08/22 06:57:50;;;;;;;12.13;3.67;;;22.90;81.10;;;;;;4927634;29;20187;-74
2021/08/22 07:00:18;;;;;;;8.50;3.60;;;22.80;81.70;;;;;;4949657;28;20189;-70
2021/08/22 07:02:45;;;;;;;9.70;2.60;;;22.60;82.50;;;;;;4951245;28;20677;-66
2021/08/22 07:05:13;;;;;;;5.87;2.07;;;22.50;83.40;;;;;;4945462;28;20655;-64
2021/08/22 07:07:41;;;;;;;4.67;2.33;;;22.30;84.70;;;;;;4954630;28;20215;-72
2021/08/22 07:10:09;;;;;;;4.90;2.20;;;22.10;85.90;;;;;;4954402;28;20241;-65
2021/08/22 07:12:37;;;;;;;11.60;2.37;;;22.00;86.60;;;;;;4951116;28;20728;-66
2021/08/22 07:15:05;;;;;;;7.30;2.60;;;21.90;87.10;;;;;;4973317;28;20294;-69
2021/08/22 07:17:33;;;;;;;4.30;2.57;;;21.80;87.80;;;;;;4961343;28;20717;-66
2021/08/22 07:20:00;;;;;;;9.17;3.00;;;21.70;88.30;;;;;;4973919;28;20185;-70
2021/08/22 07:22:27;;;;;;;8.07;2.57;;;21.60;88.70;;;;;;4973665;28;20547;-74
2021/08/22 07:24:56;;;;;;;5.60;2.87;;;21.60;88.90;;;;;;4973946;28;20190;-68
2021/08/22 07:27:24;;;;;;;10.07;2.93;;;21.50;88.80;;;;;;4964865;28;20206;-66
2021/08/22 07:29:51;;;;;;;11.70;2.90;;;21.40;88.80;;;;;;4957948;28;20605;-68
2021/08/22 07:32:19;;;;;;;10.53;2.90;;;21.40;89.00;;;;;;4955639;28;20277;-65
2021/08/22 07:34:46;;;;;;;8.90;3.07;;;21.30;89.50;;;;;;4953082;28;20680;-67
2021/08/22 07:37:13;;;;;;;11.00;2.83;;;21.30;88.80;;;;;;4952983;28;20198;-70
2021/08/22 07:39:41;;;;;;;10.23;2.60;;;21.30;88.40;;;;;;4954097;28;20317;-70
2021/08/22 07:42:08;;;;;;;5.73;2.40;;;21.20;88.80;;;;;;4953420;28;20223;-68
2021/08/22 07:44:36;;;;;;;7.43;3.10;;;21.20;89.00;;;;;;4954346;28;20183;-71
2021/08/22 07:47:03;;;;;;;11.20;3.77;;;21.10;89.10;;;;;;4954159;28;20238;-72
2021/08/22 07:49:30;;;;;;;10.60;3.43;;;21.10;89.50;;;;;;4949137;28;20199;-70
2021/08/22 07:51:58;;;;;;;8.53;3.00;;;21.00;89.40;;;;;;4948708;28;20531;-66
2021/08/22 07:54:25;;;;;;;11.53;3.13;;;21.00;89.20;;;;;;4954504;28;20211;-77
2021/08/22 07:56:52;;;;;;;12.33;3.97;;;21.00;89.20;;;;;;4941865;28;20349;-77
2021/08/22 07:59:20;;;;;;;7.63;2.80;;;21.00;89.10;;;;;;4952812;28;20272;-78
2021/08/22 08:01:47;;;;;;;7.97;3.07;;;20.90;89.20;;;;;;4954606;28;20183;-81
2021/08/22 08:04:14;;;;;;;8.13;3.60;;;20.90;89.30;;;;;;4949224;28;20282;-71
2021/08/22 08:06:42;;;;;;;8.40;3.47;;;20.90;89.10;;;;;;4944050;28;20554;-81
2021/08/22 08:09:09;;;;;;;11.30;7.47;;;20.80;89.50;;;;;;4951782;28;20182;-73
2021/08/22 08:11:36;;;;;;;31.40;18.37;;;20.80;89.10;;;;;;4953133;28;20264;-79
2021/08/22 08:14:04;;;;;;;12.73;5.83;;;20.80;88.70;;;;;;4943857;28;20191;-71
2021/08/22 08:16:31;;;;;;;8.13;3.40;;;20.80;88.50;;;;;;4946756;28;20547;-79
2021/08/22 08:18:59;;;;;;;10.00;3.37;;;20.80;88.30;;;;;;4948554;28;20194;-79
2021/08/22 08:21:26;;;;;;;9.63;3.20;;;20.80;87.90;;;;;;4950922;28;20187;-81
2021/08/22 08:23:54;;;;;;;7.17;3.20;;;20.80;87.60;;;;;;4941620;28;20598;-79
2021/08/22 08:26:21;;;;;;;19.03;3.67;;;20.80;87.30;;;;;;4947004;28;20188;-80
2021/08/22 08:28:48;;;;;;;5.93;2.93;;;20.70;87.00;;;;;;4947094;29;20191;-81
2021/08/22 08:31:17;;;;;;;6.10;2.43;;;20.80;86.50;;;;;;4957817;28;20193;-77
2021/08/22 08:33:44;;;;;;;6.87;3.20;;;20.80;86.10;;;;;;4956440;28;20623;-76
2021/08/22 08:36:11;;;;;;;6.67;2.90;;;20.80;86.00;;;;;;4947702;28;20208;-78
2021/08/22 08:38:40;;;;;;;4.63;2.03;;;20.90;85.80;;;;;;4953620;28;20230;-72
2021/08/22 08:41:07;;;;;;;5.10;2.33;;;20.80;85.80;;;;;;4947022;28;20180;-77
2021/08/22 08:43:35;;;;;;;4.37;2.43;;;20.90;85.50;;;;;;4951382;28;20184;-76
2021/08/22 08:46:15;;;;;;;4.73;2.30;;;20.90;85.80;;;;;;4951597;28;20318;-81
2021/08/22 08:48:45;;;;;;;5.40;2.50;;;20.90;85.10;;;;;;4954104;28;20194;-82
2021/08/22 08:51:22;;;;;;;4.40;2.50;;;20.90;85.10;;;;;;4949059;28;20744;-78
2021/08/22 08:54:24;;;;;;;4.83;2.60;;;20.90;85.30;;;;;;4957242;28;20186;-75
2021/08/22 08:56:51;;;;;;;9.77;3.10;;;20.80;85.00;;;;;;4954058;28;20233;-70
2021/08/22 08:59:18;;;;;;;7.33;2.60;;;20.80;84.80;;;;;;4955659;28;20187;-81
2021/08/22 09:01:45;;;;;;;7.23;3.07;;;20.90;85.00;;;;;;4950526;28;20191;-70
2021/08/22 09:04:28;;;;;;;4.57;2.80;;;20.80;85.00;;;;;;4957693;28;20183;-78
2021/08/22 09:07:32;;;;;;;5.33;2.73;;;20.80;84.70;;;;;;4956441;28;20195;-80
2021/08/22 09:10:12;;;;;;;3.87;2.30;;;20.80;84.80;;;;;;4957729;28;20186;-77
2021/08/22 09:13:15;;;;;;;8.97;3.17;;;20.80;84.70;;;;;;4957419;28;20849;-73
2021/08/22 09:16:01;;;;;;;7.37;2.50;;;20.80;84.50;;;;;;4956993;28;20203;-74
2021/08/22 09:18:50;;;;;;;4.50;2.30;;;20.80;84.70;;;;;;4951659;28;20179;-71
2021/08/22 09:21:54;;;;;;;6.10;3.27;;;20.70;84.60;;;;;;4955423;28;20284;-77
2021/08/22 09:24:51;;;;;;;5.63;2.70;;;20.80;84.50;;;;;;4960774;28;20189;-66
2021/08/22 09:27:37;;;;;;;6.70;2.60;;;20.80;84.30;;;;;;4970497;28;20170;-72
2021/08/22 09:30:32;;;;;;;6.00;2.20;;;20.80;84.40;;;;;;4951390;28;20683;-65
2021/08/22 09:33:18;;;;;;;3.80;2.50;;;20.80;84.20;;;;;;4951517;28;20251;-74
2021/08/22 09:36:03;;;;;;;3.90;2.27;;;20.80;84.20;;;;;;4949916;28;20217;-74
2021/08/22 09:39:27;;;;;;;4.80;2.47;;;20.80;84.00;;;;;;4954524;28;20389;-78
2021/08/22 09:42:31;;;;;;;7.33;2.27;;;20.80;83.90;;;;;;4877868;29;20198;-66
2021/08/22 09:45:54;;;;;;;4.60;2.07;;;20.80;84.00;;;;;;4878562;29;20657;-75
2021/08/22 09:48:33;;;;;;;3.53;2.67;;;20.80;84.20;;;;;;4894805;29;20195;-72
2021/08/22 09:51:09;;;;;;;4.33;2.77;;;20.70;84.40;;;;;;4888261;29;20659;-77
2021/08/22 09:54:10;;;;;;;4.83;2.30;;;20.70;84.50;;;;;;4931041;28;20245;-74
2021/08/22 09:56:59;;;;;;;4.87;2.60;;;20.70;84.50;;;;;;4956678;28;20703;-69
2021/08/22 09:59:44;;;;;;;5.47;2.53;;;20.60;84.80;;;;;;4950080;28;20218;-69
2021/08/22 10:02:32;;;;;;;6.83;2.63;;;20.60;84.80;;;;;;4952995;28;20185;-72
2021/08/22 10:05:02;;;;;;;8.30;2.60;;;20.60;84.80;;;;;;4945206;28;20220;-67
2021/08/22 10:07:39;;;;;;;4.87;2.80;;;20.60;84.70;;;;;;4944454;28;20218;-72
2021/08/22 10:10:13;;;;;;;10.57;3.33;;;20.60;84.60;;;;;;4955374;28;20198;-71
2021/08/22 10:12:42;;;;;;;8.73;2.93;;;20.60;84.60;;;;;;4951388;29;20187;-66
2021/08/22 10:15:11;;;;;;;5.97;3.30;;;20.60;84.50;;;;;;4945924;29;20210;-69
2021/08/22 10:17:38;;;;;;;5.37;2.53;;;20.60;84.70;;;;;;4953959;29;20187;-78
2021/08/22 10:20:06;;;;;;;5.43;3.30;;;20.60;85.10;;;;;;4955542;28;20191;-77
2021/08/22 10:22:35;;;;;;;5.13;3.10;;;20.60;85.30;;;;;;4940022;29;20188;-66
2021/08/22 10:25:10;;;;;;;5.73;3.23;;;20.50;85.40;;;;;;4951615;28;20183;-72
2021/08/22 10:27:45;;;;;;;4.97;2.83;;;20.50;85.40;;;;;;4948474;29;20195;-68
2021/08/22 10:30:18;;;;;;;8.90;3.60;;;20.60;85.60;;;;;;4943869;29;20181;-66
2021/08/22 10:33:00;;;;;;;7.80;3.50;;;20.50;85.70;;;;;;4948036;29;20180;-66
2021/08/22 10:35:29;;;;;;;6.67;3.47;;;20.50;85.90;;;;;;4942600;28;20219;-66
2021/08/22 10:38:16;;;;;;;8.57;3.67;;;20.50;85.90;;;;;;4948059;29;20222;-69
2021/08/22 10:40:44;;;;;;;5.77;3.40;;;20.40;86.10;;;;;;4952991;28;20176;-66
2021/08/22 10:43:11;;;;;;;5.27;3.20;;;20.40;86.10;;;;;;4949872;29;20243;-65
2021/08/22 10:45:48;;;;;;;6.00;2.87;;;20.40;86.10;;;;;;4946997;28;20274;-75
2021/08/22 10:48:21;;;;;;;6.53;3.27;;;20.40;86.20;;;;;;4937259;29;20715;-66
2021/08/22 10:51:02;;;;;;;7.30;3.43;;;20.40;86.30;;;;;;4953190;28;20269;-66
2021/08/22 10:53:34;;;;;;;7.27;3.70;;;20.40;86.40;;;;;;4947879;29;20321;-65
2021/08/22 10:56:29;;;;;;;10.37;7.70;;;20.40;86.60;;;;;;4952004;28;20225;-68
2021/08/22 10:58:59;;;;;;;7.87;4.97;;;20.40;87.20;;;;;;4952160;29;20646;-74
2021/08/22 11:01:35;;;;;;;10.20;4.30;;;20.30;86.70;;;;;;4941587;28;20299;-73
2021/08/22 11:04:14;;;;;;;5.60;3.50;;;20.30;86.70;;;;;;4949553;28;20174;-66
2021/08/22 11:06:57;;;;;;;5.40;3.30;;;20.30;86.70;;;;;;4945514;28;20183;-75
2021/08/22 11:09:44;;;;;;;5.70;3.70;;;20.30;86.70;;;;;;4946142;29;20183;-65
2021/08/22 11:12:24;;;;;;;5.70;3.37;;;20.20;86.90;;;;;;4948620;28;20195;-73
2021/08/22 11:14:52;;;;;;;8.93;3.90;;;20.10;87.30;;;;;;4945421;28;20183;-70
2021/08/22 11:17:20;;;;;;;6.17;3.60;;;20.10;87.40;;;;;;4949896;28;20187;-67
2021/08/22 11:19:47;;;;;;;6.77;4.37;;;20.10;87.60;;;;;;4949983;29;20179;-66
2021/08/22 11:22:29;;;;;;;7.97;4.00;;;20.10;87.50;;;;;;4953003;29;20191;-68
2021/08/22 11:24:58;;;;;;;7.37;4.43;;;20.00;87.40;;;;;;4947680;29;20596;-77
2021/08/22 11:27:28;;;;;;;10.73;4.50;;;20.00;87.60;;;;;;4944565;29;20180;-66
2021/08/22 11:30:12;;;;;;;7.00;4.20;;;20.00;88.00;;;;;;4944756;28;20195;-75
2021/08/22 11:32:49;;;;;;;9.60;4.70;;;20.00;88.30;;;;;;4951050;29;20549;-75
2021/08/22 11:35:21;;;;;;;6.30;4.00;;;20.00;88.50;;;;;;4939418;29;20641;-68
2021/08/22 11:37:48;;;;;;;10.77;8.17;;;20.00;88.70;;;;;;4942503;28;20734;-69
2021/08/22 11:40:18;;;;;;;13.03;7.10;;;20.00;88.40;;;;;;4965173;28;20241;-67
2021/08/22 11:42:51;;;;;;;13.27;6.80;;;20.00;88.40;;;;;;4958074;28;20269;-73
2021/08/22 11:45:20;;;;;;;8.37;5.33;;;20.00;88.40;;;;;;4954790;28;20272;-69
2021/08/22 11:47:49;;;;;;;12.07;4.90;;;20.10;88.40;;;;;;4952924;29;20657;-65
2021/08/22 11:50:20;;;;;;;8.07;4.20;;;20.00;88.40;;;;;;4950692;29;20266;-66
2021/08/22 11:52:49;;;;;;;12.20;5.47;;;20.10;88.30;;;;;;4949586;29;20188;-68
2021/08/22 11:55:18;;;;;;;7.33;4.87;;;20.10;88.30;;;;;;4951964;29;20273;-67
2021/08/22 11:57:46;;;;;;;9.37;4.90;;;20.00;88.00;;;;;;4951684;29;20190;-69
2021/08/22 12:00:19;;;;;;;12.10;4.43;;;20.00;88.40;;;;;;4949441;28;20239;-78
2021/08/22 12:03:03;;;;;;;9.33;5.17;;;20.00;87.90;;;;;;4939585;29;20242;-75
2021/08/22 12:05:33;;;;;;;7.17;4.97;;;20.00;88.00;;;;;;4943915;29;20206;-81
2021/08/22 12:08:12;;;;;;;8.97;5.07;;;20.00;87.60;;;;;;4947590;29;20642;-70
2021/08/22 12:10:42;;;;;;;9.27;5.07;;;20.00;87.80;;;;;;4943413;28;20215;-66
2021/08/22 12:13:20;;;;;;;8.73;5.20;;;20.00;87.50;;;;;;4949699;29;20203;-72
2021/08/22 12:15:50;;;;;;;9.53;5.13;;;20.00;87.30;;;;;;4954424;29;20254;-67
2021/08/22 12:18:20;;;;;;;10.43;5.20;;;20.00;86.90;;;;;;4957938;29;20663;-68
2021/08/22 12:20:53;;;;;;;7.07;4.63;;;20.00;86.60;;;;;;4956392;29;20176;-69
2021/08/22 12:23:34;;;;;;;11.17;5.30;;;19.90;87.00;;;;;;4958147;29;20521;-79
2021/08/22 12:26:30;;;;;;;8.93;5.30;;;19.90;87.60;;;;;;4949644;29;20241;-74
2021/08/22 12:29:08;;;;;;;9.27;4.20;;;19.80;88.30;;;;;;4948567;29;20190;-72
2021/08/22 12:31:40;;;;;;;10.43;4.67;;;19.70;89.00;;;;;;4947270;28;20186;-73
2021/08/22 12:34:15;;;;;;;10.83;5.07;;;19.60;89.60;;;;;;4951199;29;20384;-71
2021/08/22 12:36:44;;;;;;;7.53;4.87;;;19.60;89.90;;;;;;4956340;29;20214;-75
2021/08/22 12:39:14;;;;;;;9.73;4.50;;;19.60;90.00;;;;;;4958345;28;20736;-79
2021/08/22 12:41:48;;;;;;;8.13;5.30;;;19.60;90.00;;;;;;4947176;28;20199;-81
2021/08/22 12:44:26;;;;;;;7.73;4.90;;;19.50;90.10;;;;;;4957757;28;20183;-81
2021/08/22 12:46:55;;;;;;;13.50;4.57;;;19.40;90.30;;;;;;4956067;28;20179;-81
2021/08/22 12:49:23;;;;;;;7.17;4.73;;;19.40;90.40;;;;;;4956715;29;20206;-79
2021/08/22 12:52:02;;;;;;;10.30;5.77;;;19.40;90.40;;;;;;4956569;28;20189;-79
2021/08/22 12:54:30;;;;;;;8.63;4.83;;;19.40;90.30;;;;;;4957417;28;20183;-81
2021/08/22 12:56:59;;;;;;;10.63;4.73;;;19.30;90.60;;;;;;4945137;29;20704;-81
2021/08/22 12:59:27;;;;;;;10.63;5.63;;;19.30;90.90;;;;;;4951431;29;20329;-81